sensor_id;sensor_type;location;lat;lon;timestamp;pressure;altitude;pressure_sealevel;temperature;humidity
64853;BME280;56050;55.558;-4.644;2023-02-02T00:01:54;101892.13;;;11.18;71.58
64853;BME280;56050;55.558;-4.644;2023-02-02T00:04:24;101894.06;;;11.17;71.76
64853;BME280;56050;55.558;-4.644;2023-02-02T00:06:50;101900.22;;;11.18;71.65
64853;BME280;56050;55.558;-4.644;2023-02-02T00:09:17;101905.25;;;11.19;71.86
64853;BME280;56050;55.558;-4.644;2023-02-02T00:11:44;101900.66;;;11.20;71.74
64853;BME280;56050;55.558;-4.644;2023-02-02T00:14:11;101896.81;;;11.21;71.75
64853;BME280;56050;55.558;-4.644;2023-02-02T00:16:39;101897.94;;;11.20;71.85
64853;BME280;56050;55.558;-4.644;2023-02-02T00:19:11;101884.81;;;11.18;71.78
64853;BME280;56050;55.558;-4.644;2023-02-02T00:21:37;101889.84;;;11.20;71.92
64853;BME280;56050;55.558;-4.644;2023-02-02T00:24:07;101881.38;;;11.21;71.86
64853;BME280;56050;55.558;-4.644;2023-02-02T00:26:34;101872.16;;;11.23;71.76
64853;BME280;56050;55.558;-4.644;2023-02-02T00:29:00;101876.06;;;11.25;71.96
64853;BME280;56050;55.558;-4.644;2023-02-02T00:31:26;101877.25;;;11.28;71.90
64853;BME280;56050;55.558;-4.644;2023-02-02T00:33:51;101873.78;;;11.27;71.95
64853;BME280;56050;55.558;-4.644;2023-02-02T00:36:18;101876.13;;;11.29;71.85
64853;BME280;56050;55.558;-4.644;2023-02-02T00:38:45;101869.16;;;11.28;71.90
64853;BME280;56050;55.558;-4.644;2023-02-02T00:41:11;101883.44;;;11.28;71.98
64853;BME280;56050;55.558;-4.644;2023-02-02T00:43:36;101869.56;;;11.30;72.06
64853;BME280;56050;55.558;-4.644;2023-02-02T00:46:02;101868.81;;;11.29;72.11
64853;BME280;56050;55.558;-4.644;2023-02-02T00:48:27;101853.75;;;11.28;71.76
64853;BME280;56050;55.558;-4.644;2023-02-02T00:50:53;101847.22;;;11.29;72.07
64853;BME280;56050;55.558;-4.644;2023-02-02T00:53:19;101848.34;;;11.28;72.09
64853;BME280;56050;55.558;-4.644;2023-02-02T00:55:45;101848.75;;;11.27;72.10
64853;BME280;56050;55.558;-4.644;2023-02-02T00:58:10;101845.59;;;11.25;72.30
64853;BME280;56050;55.558;-4.644;2023-02-02T01:00:36;101850.22;;;11.24;72.38
64853;BME280;56050;55.558;-4.644;2023-02-02T01:03:04;101837.81;;;11.19;72.57
64853;BME280;56050;55.558;-4.644;2023-02-02T01:05:34;101860.13;;;11.16;72.63
64853;BME280;56050;55.558;-4.644;2023-02-02T01:07:59;101863.53;;;11.13;72.90
64853;BME280;56050;55.558;-4.644;2023-02-02T01:10:25;101850.38;;;11.08;72.84
64853;BME280;56050;55.558;-4.644;2023-02-02T01:12:51;101844.56;;;11.06;72.99
64853;BME280;56050;55.558;-4.644;2023-02-02T01:15:17;101839.16;;;11.06;73.02
64853;BME280;56050;55.558;-4.644;2023-02-02T01:17:42;101837.25;;;11.07;72.86
64853;BME280;56050;55.558;-4.644;2023-02-02T01:20:13;101839.53;;;11.05;72.91
64853;BME280;56050;55.558;-4.644;2023-02-02T01:22:39;101838.38;;;11.06;72.83
64853;BME280;56050;55.558;-4.644;2023-02-02T01:25:05;101838.75;;;11.04;72.68
64853;BME280;56050;55.558;-4.644;2023-02-02T01:27:31;101835.22;;;11.00;72.71
64853;BME280;56050;55.558;-4.644;2023-02-02T01:29:56;101832.47;;;10.97;73.12
64853;BME280;56050;55.558;-4.644;2023-02-02T01:32:21;101840.50;;;10.93;72.96
64853;BME280;56050;55.558;-4.644;2023-02-02T01:34:47;101839.28;;;10.91;72.91
64853;BME280;56050;55.558;-4.644;2023-02-02T01:37:12;101837.69;;;10.86;73.46
64853;BME280;56050;55.558;-4.644;2023-02-02T01:39:38;101836.09;;;10.82;73.25
64853;BME280;56050;55.558;-4.644;2023-02-02T01:42:11;101826.81;;;10.79;73.40
64853;BME280;56050;55.558;-4.644;2023-02-02T01:47:31;101826.72;;;10.76;73.46
64853;BME280;56050;55.558;-4.644;2023-02-02T01:49:58;101825.94;;;10.75;73.51
64853;BME280;56050;55.558;-4.644;2023-02-02T01:52:26;101829.72;;;10.71;73.46
64853;BME280;56050;55.558;-4.644;2023-02-02T01:54:56;101824.28;;;10.67;73.55
64853;BME280;56050;55.558;-4.644;2023-02-02T01:57:52;101824.22;;;10.63;73.57
64853;BME280;56050;55.558;-4.644;2023-02-02T02:00:17;101830.75;;;10.63;73.73
64853;BME280;56050;55.558;-4.644;2023-02-02T02:02:48;101822.59;;;10.59;73.81
64853;BME280;56050;55.558;-4.644;2023-02-02T02:05:19;101818.72;;;10.56;73.86
64853;BME280;56050;55.558;-4.644;2023-02-02T02:07:46;101816.34;;;10.55;73.95
64853;BME280;56050;55.558;-4.644;2023-02-02T02:10:16;101810.56;;;10.53;74.05
64853;BME280;56050;55.558;-4.644;2023-02-02T02:12:41;101806.66;;;10.50;74.17
64853;BME280;56050;55.558;-4.644;2023-02-02T02:15:07;101809.72;;;10.49;74.16
64853;BME280;56050;55.558;-4.644;2023-02-02T02:18:15;101803.50;;;10.45;74.31
64853;BME280;56050;55.558;-4.644;2023-02-02T02:21:04;101797.69;;;10.43;74.29
64853;BME280;56050;55.558;-4.644;2023-02-02T02:24:20;101796.13;;;10.42;74.33
64853;BME280;56050;55.558;-4.644;2023-02-02T02:38:18;101792.66;;;10.41;74.93
64853;BME280;56050;55.558;-4.644;2023-02-02T02:40:50;101801.16;;;10.43;75.33
64853;BME280;56050;55.558;-4.644;2023-02-02T02:43:19;101793.91;;;10.47;75.22
64853;BME280;56050;55.558;-4.644;2023-02-02T02:45:45;101788.94;;;10.49;75.44
64853;BME280;56050;55.558;-4.644;2023-02-02T02:48:11;101791.63;;;10.49;75.38
64853;BME280;56050;55.558;-4.644;2023-02-02T02:50:37;101798.59;;;10.50;75.53
64853;BME280;56050;55.558;-4.644;2023-02-02T02:53:06;101786.69;;;10.51;75.65
64853;BME280;56050;55.558;-4.644;2023-02-02T02:56:04;101784.41;;;10.53;75.73
64853;BME280;56050;55.558;-4.644;2023-02-02T03:01:36;101785.28;;;10.61;76.63
64853;BME280;56050;55.558;-4.644;2023-02-02T03:06:46;101797.69;;;10.66;77.09
64853;BME280;56050;55.558;-4.644;2023-02-02T03:09:22;101795.75;;;10.66;76.90
64853;BME280;56050;55.558;-4.644;2023-02-02T03:11:49;101798.91;;;10.68;76.96
64853;BME280;56050;55.558;-4.644;2023-02-02T03:14:15;101799.72;;;10.72;77.09
64853;BME280;56050;55.558;-4.644;2023-02-02T03:16:41;101804.31;;;10.72;76.97
64853;BME280;56050;55.558;-4.644;2023-02-02T03:19:06;101813.63;;;10.74;77.07
64853;BME280;56050;55.558;-4.644;2023-02-02T03:21:33;101816.31;;;10.74;76.98
64853;BME280;56050;55.558;-4.644;2023-02-02T03:23:59;101804.78;;;10.77;76.96
64853;BME280;56050;55.558;-4.644;2023-02-02T03:26:25;101807.16;;;10.79;76.96
64853;BME280;56050;55.558;-4.644;2023-02-02T03:28:52;101817.22;;;10.82;76.91
64853;BME280;56050;55.558;-4.644;2023-02-02T03:31:19;101822.22;;;10.83;76.66
64853;BME280;56050;55.558;-4.644;2023-02-02T03:33:45;101827.69;;;10.87;76.93
64853;BME280;56050;55.558;-4.644;2023-02-02T03:36:10;101827.31;;;10.88;76.86
64853;BME280;56050;55.558;-4.644;2023-02-02T03:38:36;101830.06;;;10.92;77.02
64853;BME280;56050;55.558;-4.644;2023-02-02T03:41:01;101834.75;;;10.95;76.71
64853;BME280;56050;55.558;-4.644;2023-02-02T03:43:27;101830.19;;;10.99;76.95
64853;BME280;56050;55.558;-4.644;2023-02-02T03:45:57;101827.91;;;11.01;76.83
64853;BME280;56050;55.558;-4.644;2023-02-02T03:48:23;101831.81;;;11.03;76.89
64853;BME280;56050;55.558;-4.644;2023-02-02T03:50:48;101830.31;;;11.06;76.95
64853;BME280;56050;55.558;-4.644;2023-02-02T03:53:13;101833.41;;;11.08;76.89
64853;BME280;56050;55.558;-4.644;2023-02-02T03:55:39;101830.38;;;11.09;77.12
64853;BME280;56050;55.558;-4.644;2023-02-02T03:58:05;101832.69;;;11.11;76.83
64853;BME280;56050;55.558;-4.644;2023-02-02T04:00:31;101838.13;;;11.14;76.82
64853;BME280;56050;55.558;-4.644;2023-02-02T04:02:56;101840.91;;;11.18;76.92
64853;BME280;56050;55.558;-4.644;2023-02-02T04:05:22;101842.88;;;11.21;76.94
64853;BME280;56050;55.558;-4.644;2023-02-02T04:07:47;101845.19;;;11.23;77.12
64853;BME280;56050;55.558;-4.644;2023-02-02T04:10:13;101850.66;;;11.26;76.89
64853;BME280;56050;55.558;-4.644;2023-02-02T04:12:39;101859.53;;;11.27;76.72
64853;BME280;56050;55.558;-4.644;2023-02-02T04:15:05;101853.38;;;11.30;76.49
64853;BME280;56050;55.558;-4.644;2023-02-02T04:17:31;101850.34;;;11.31;76.29
64853;BME280;56050;55.558;-4.644;2023-02-02T04:19:56;101848.41;;;11.32;76.35
64853;BME280;56050;55.558;-4.644;2023-02-02T04:22:23;101850.75;;;11.33;76.09
64853;BME280;56050;55.558;-4.644;2023-02-02T04:24:49;101848.41;;;11.32;75.97
64853;BME280;56050;55.558;-4.644;2023-02-02T04:27:15;101846.84;;;11.31;75.79
64853;BME280;56050;55.558;-4.644;2023-02-02T04:29:40;101844.16;;;11.31;75.71
64853;BME280;56050;55.558;-4.644;2023-02-02T04:32:06;101842.25;;;11.31;75.72
64853;BME280;56050;55.558;-4.644;2023-02-02T04:34:31;101829.88;;;11.30;75.78
64853;BME280;56050;55.558;-4.644;2023-02-02T04:36:56;101817.59;;;11.33;75.83
64853;BME280;56050;55.558;-4.644;2023-02-02T04:39:22;101802.56;;;11.32;75.72
64853;BME280;56050;55.558;-4.644;2023-02-02T04:41:47;101797.94;;;11.32;75.67
64853;BME280;56050;55.558;-4.644;2023-02-02T04:44:13;101790.59;;;11.33;75.71
64853;BME280;56050;55.558;-4.644;2023-02-02T04:46:41;101791.34;;;11.30;75.83
64853;BME280;56050;55.558;-4.644;2023-02-02T04:49:08;101793.63;;;11.28;75.88
64853;BME280;56050;55.558;-4.644;2023-02-02T04:51:35;101798.22;;;11.24;75.90
64853;BME280;56050;55.558;-4.644;2023-02-02T04:54:01;101789.34;;;11.23;75.80
64853;BME280;56050;55.558;-4.644;2023-02-02T04:56:26;101778.50;;;11.19;76.01
64853;BME280;56050;55.558;-4.644;2023-02-02T04:58:53;101789.66;;;11.18;76.05
64853;BME280;56050;55.558;-4.644;2023-02-02T05:01:21;101778.88;;;11.18;76.09
64853;BME280;56050;55.558;-4.644;2023-02-02T05:03:47;101775.38;;;11.17;75.96
64853;BME280;56050;55.558;-4.644;2023-02-02T05:06:14;101773.09;;;11.19;75.97
64853;BME280;56050;55.558;-4.644;2023-02-02T05:08:40;101762.69;;;11.18;75.80
64853;BME280;56050;55.558;-4.644;2023-02-02T05:11:15;101770.72;;;11.14;75.83
64853;BME280;56050;55.558;-4.644;2023-02-02T05:13:45;101768.03;;;11.14;75.75
64853;BME280;56050;55.558;-4.644;2023-02-02T05:16:11;101761.78;;;11.10;75.80
64853;BME280;56050;55.558;-4.644;2023-02-02T05:18:36;101784.88;;;11.08;75.79
64853;BME280;56050;55.558;-4.644;2023-02-02T05:21:02;101760.91;;;11.03;75.88
64853;BME280;56050;55.558;-4.644;2023-02-02T05:23:29;101760.56;;;11.04;75.93
64853;BME280;56050;55.558;-4.644;2023-02-02T05:25:54;101760.91;;;11.03;75.78
64853;BME280;56050;55.558;-4.644;2023-02-02T05:28:21;101754.78;;;11.06;75.79
64853;BME280;56050;55.558;-4.644;2023-02-02T05:30:47;101756.38;;;11.07;75.92
64853;BME280;56050;55.558;-4.644;2023-02-02T05:33:13;101751.31;;;11.05;75.60
64853;BME280;56050;55.558;-4.644;2023-02-02T05:35:39;101758.28;;;11.06;75.32
64853;BME280;56050;55.558;-4.644;2023-02-02T05:38:04;101757.13;;;11.07;75.27
64853;BME280;56050;55.558;-4.644;2023-02-02T05:40:29;101764.13;;;11.12;75.08
64853;BME280;56050;55.558;-4.644;2023-02-02T05:42:55;101764.19;;;11.15;74.95
64853;BME280;56050;55.558;-4.644;2023-02-02T05:45:22;101763.44;;;11.18;74.98
64853;BME280;56050;55.558;-4.644;2023-02-02T05:47:48;101752.72;;;11.22;74.74
64853;BME280;56050;55.558;-4.644;2023-02-02T05:50:13;101748.88;;;11.23;74.55
64853;BME280;56050;55.558;-4.644;2023-02-02T05:52:40;101748.88;;;11.23;74.67
64853;BME280;56050;55.558;-4.644;2023-02-02T05:55:07;101747.38;;;11.26;74.44
64853;BME280;56050;55.558;-4.644;2023-02-02T05:57:33;101750.47;;;11.28;74.34
64853;BME280;56050;55.558;-4.644;2023-02-02T05:59:59;101758.56;;;11.28;74.29
64853;BME280;56050;55.558;-4.644;2023-02-02T06:02:24;101755.50;;;11.29;74.07
64853;BME280;56050;55.558;-4.644;2023-02-02T06:04:50;101770.13;;;11.28;73.77
64853;BME280;56050;55.558;-4.644;2023-02-02T06:07:15;101758.56;;;11.28;74.06
64853;BME280;56050;55.558;-4.644;2023-02-02T06:09:41;101769.72;;;11.26;73.99
64853;BME280;56050;55.558;-4.644;2023-02-02T06:12:06;101753.53;;;11.26;73.96
64853;BME280;56050;55.558;-4.644;2023-02-02T06:14:32;101747.72;;;11.24;73.98
64853;BME280;56050;55.558;-4.644;2023-02-02T06:16:58;101737.31;;;11.23;73.71
64853;BME280;56050;55.558;-4.644;2023-02-02T06:19:23;101743.84;;;11.21;73.88
64853;BME280;56050;55.558;-4.644;2023-02-02T06:21:49;101741.91;;;11.22;73.83
64853;BME280;56050;55.558;-4.644;2023-02-02T06:24:14;101750.78;;;11.23;73.74
64853;BME280;56050;55.558;-4.644;2023-02-02T06:26:40;101718.03;;;11.20;73.61
64853;BME280;56050;55.558;-4.644;2023-02-02T06:29:05;101728.81;;;11.20;73.48
64853;BME280;56050;55.558;-4.644;2023-02-02T06:31:31;101708.78;;;11.21;73.54
64853;BME280;56050;55.558;-4.644;2023-02-02T06:33:58;101709.56;;;11.22;73.57
64853;BME280;56050;55.558;-4.644;2023-02-02T06:36:25;101705.72;;;11.23;73.27
64853;BME280;56050;55.558;-4.644;2023-02-02T06:38:53;101709.19;;;11.24;73.29
64853;BME280;56050;55.558;-4.644;2023-02-02T06:41:19;101716.84;;;11.21;72.94
64853;BME280;56050;55.558;-4.644;2023-02-02T06:43:46;101713.41;;;11.21;72.99
64853;BME280;56050;55.558;-4.644;2023-02-02T06:46:12;101717.25;;;11.20;72.81
64853;BME280;56050;55.558;-4.644;2023-02-02T06:48:38;101712.97;;;11.19;72.92
64853;BME280;56050;55.558;-4.644;2023-02-02T06:51:04;101715.69;;;11.19;72.82
64853;BME280;56050;55.558;-4.644;2023-02-02T06:53:30;101721.78;;;11.16;72.74
64853;BME280;56050;55.558;-4.644;2023-02-02T06:56:03;101716.00;;;11.14;72.72
64853;BME280;56050;55.558;-4.644;2023-02-02T06:58:30;101722.97;;;11.15;72.38
64853;BME280;56050;55.558;-4.644;2023-02-02T07:01:09;101718.69;;;11.14;72.60
64853;BME280;56050;55.558;-4.644;2023-02-02T07:03:36;101718.34;;;11.15;72.53
64853;BME280;56050;55.558;-4.644;2023-02-02T07:06:22;101726.38;;;11.12;72.51
64853;BME280;56050;55.558;-4.644;2023-02-02T07:08:49;101726.38;;;11.12;72.52
64853;BME280;56050;55.558;-4.644;2023-02-02T07:11:16;101739.88;;;11.12;72.59
64853;BME280;56050;55.558;-4.644;2023-02-02T07:13:43;101745.25;;;11.12;72.51
64853;BME280;56050;55.558;-4.644;2023-02-02T07:16:09;101750.28;;;11.13;72.51
64853;BME280;56050;55.558;-4.644;2023-02-02T07:18:37;101747.22;;;11.15;72.47
64853;BME280;56050;55.558;-4.644;2023-02-02T07:21:03;101754.94;;;11.16;72.46
64853;BME280;56050;55.558;-4.644;2023-02-02T07:23:29;101758.03;;;11.15;72.49
64853;BME280;56050;55.558;-4.644;2023-02-02T07:26:03;101768.81;;;11.15;72.45
64853;BME280;56050;55.558;-4.644;2023-02-02T07:28:29;101776.16;;;11.18;72.25
64853;BME280;56050;55.558;-4.644;2023-02-02T07:30:55;101780.84;;;11.21;72.28
64853;BME280;56050;55.558;-4.644;2023-02-02T07:33:20;101781.97;;;11.20;72.54
64853;BME280;56050;55.558;-4.644;2023-02-02T07:35:46;101791.97;;;11.19;72.29
64853;BME280;56050;55.558;-4.644;2023-02-02T07:38:11;101803.94;;;11.22;72.15
64853;BME280;56050;55.558;-4.644;2023-02-02T07:40:37;101804.34;;;11.24;72.24
64853;BME280;56050;55.558;-4.644;2023-02-02T07:43:02;101805.16;;;11.25;72.13
64853;BME280;56050;55.558;-4.644;2023-02-02T07:45:29;101793.56;;;11.24;72.14
64853;BME280;56050;55.558;-4.644;2023-02-02T07:47:58;101797.44;;;11.23;72.10
64853;BME280;56050;55.558;-4.644;2023-02-02T07:50:25;101796.31;;;11.28;72.06
64853;BME280;56050;55.558;-4.644;2023-02-02T07:52:51;101791.72;;;11.28;72.16
64853;BME280;56050;55.558;-4.644;2023-02-02T07:55:17;101789.81;;;11.29;72.05
64853;BME280;56050;55.558;-4.644;2023-02-02T07:57:43;101798.69;;;11.29;72.27
64853;BME280;56050;55.558;-4.644;2023-02-02T08:00:09;101796.72;;;11.30;72.20
64853;BME280;56050;55.558;-4.644;2023-02-02T08:02:35;101795.59;;;11.31;72.20
64853;BME280;56050;55.558;-4.644;2023-02-02T08:05:00;101807.19;;;11.31;72.33
64853;BME280;56050;55.558;-4.644;2023-02-02T08:07:26;101805.25;;;11.32;72.25
64853;BME280;56050;55.558;-4.644;2023-02-02T08:09:51;101814.88;;;11.29;72.50
64853;BME280;56050;55.558;-4.644;2023-02-02T08:12:18;101829.47;;;11.28;72.55
64853;BME280;56050;55.558;-4.644;2023-02-02T08:14:43;101831.38;;;11.28;72.60
64853;BME280;56050;55.558;-4.644;2023-02-02T08:17:09;101826.78;;;11.28;72.54
64853;BME280;56050;55.558;-4.644;2023-02-02T08:19:34;101847.56;;;11.28;72.80
64853;BME280;56050;55.558;-4.644;2023-02-02T08:22:00;101845.25;;;11.26;72.81
64853;BME280;56050;55.558;-4.644;2023-02-02T08:24:25;101846.78;;;11.27;72.82
64853;BME280;56050;55.558;-4.644;2023-02-02T08:26:51;101843.75;;;11.29;72.78
64853;BME280;56050;55.558;-4.644;2023-02-02T08:29:16;101845.28;;;11.30;72.96
64853;BME280;56050;55.558;-4.644;2023-02-02T08:31:43;101851.47;;;11.30;72.85
64853;BME280;56050;55.558;-4.644;2023-02-02T08:34:09;101854.94;;;11.31;72.86
64853;BME280;56050;55.558;-4.644;2023-02-02T08:36:35;101850.34;;;11.31;72.88
64853;BME280;56050;55.558;-4.644;2023-02-02T08:39:05;101849.22;;;11.32;72.99
64853;BME280;56050;55.558;-4.644;2023-02-02T08:41:31;101843.81;;;11.32;72.93
64853;BME280;56050;55.558;-4.644;2023-02-02T08:43:58;101843.03;;;11.32;73.20
64853;BME280;56050;55.558;-4.644;2023-02-02T08:46:24;101843.81;;;11.32;73.08
64853;BME280;56050;55.558;-4.644;2023-02-02T08:48:49;101846.50;;;11.32;73.09
64853;BME280;56050;55.558;-4.644;2023-02-02T08:51:17;101868.09;;;11.32;73.28
64853;BME280;56050;55.558;-4.644;2023-02-02T08:53:44;101855.34;;;11.33;73.24
64853;BME280;56050;55.558;-4.644;2023-02-02T08:56:17;101853.44;;;11.33;73.37
64853;BME280;56050;55.558;-4.644;2023-02-02T08:58:44;101846.91;;;11.34;73.31
64853;BME280;56050;55.558;-4.644;2023-02-02T09:01:13;101848.44;;;11.35;73.31
64853;BME280;56050;55.558;-4.644;2023-02-02T09:03:40;101834.63;;;11.37;73.44
64853;BME280;56050;55.558;-4.644;2023-02-02T09:06:08;101828.44;;;11.36;73.46
64853;BME280;56050;55.558;-4.644;2023-02-02T09:08:34;101833.03;;;11.36;73.40
64853;BME280;56050;55.558;-4.644;2023-02-02T09:11:11;101829.94;;;11.34;73.41
64853;BME280;56050;55.558;-4.644;2023-02-02T09:13:37;101833.84;;;11.36;73.48
64853;BME280;56050;55.558;-4.644;2023-02-02T09:16:05;101841.53;;;11.34;73.60
64853;BME280;56050;55.558;-4.644;2023-02-02T09:18:31;101843.06;;;11.35;73.63
64853;BME280;56050;55.558;-4.644;2023-02-02T09:21:02;101842.31;;;11.35;73.67
64853;BME280;56050;55.558;-4.644;2023-02-02T09:23:30;101840.34;;;11.35;73.64
64853;BME280;56050;55.558;-4.644;2023-02-02T09:25:56;101850.03;;;11.36;73.80
64853;BME280;56050;55.558;-4.644;2023-02-02T09:28:22;101848.44;;;11.35;73.66
64853;BME280;56050;55.558;-4.644;2023-02-02T09:30:47;101839.16;;;11.33;73.93
64853;BME280;56050;55.558;-4.644;2023-02-02T09:33:13;101832.19;;;11.28;74.11
64853;BME280;56050;55.558;-4.644;2023-02-02T09:35:38;101847.53;;;11.24;74.18
64853;BME280;56050;55.558;-4.644;2023-02-02T09:38:04;101852.16;;;11.24;74.28
64853;BME280;56050;55.558;-4.644;2023-02-02T09:40:31;101859.06;;;11.21;74.43
64853;BME280;56050;55.558;-4.644;2023-02-02T09:49:07;101864.31;;;11.14;74.69
64853;BME280;56050;55.558;-4.644;2023-02-02T09:51:39;101875.03;;;11.10;74.84
64853;BME280;56050;55.558;-4.644;2023-02-02T09:54:16;101868.91;;;11.10;74.92
64853;BME280;56050;55.558;-4.644;2023-02-02T09:56:46;101860.03;;;11.09;74.78
64853;BME280;56050;55.558;-4.644;2023-02-02T09:59:23;101864.69;;;11.12;74.70
64853;BME280;56050;55.558;-4.644;2023-02-02T10:01:54;101860.50;;;11.15;74.49
64853;BME280;56050;55.558;-4.644;2023-02-02T10:06:57;101875.25;;;11.21;73.54
64853;BME280;56050;55.558;-4.644;2023-02-02T10:09:38;101867.16;;;11.21;73.50
64853;BME280;56050;55.558;-4.644;2023-02-02T10:15:14;101873.09;;;11.34;72.92
64853;BME280;56050;55.558;-4.644;2023-02-02T10:18:05;101874.72;;;11.38;72.24
64853;BME280;56050;55.558;-4.644;2023-02-02T10:20:46;101878.19;;;11.39;72.14
64853;BME280;56050;55.558;-4.644;2023-02-02T10:23:36;101884.00;;;11.41;72.27
64853;BME280;56050;55.558;-4.644;2023-02-02T10:26:27;101890.22;;;11.45;72.10
64853;BME280;56050;55.558;-4.644;2023-02-02T10:34:25;101893.00;;;11.48;71.81
64853;BME280;56050;55.558;-4.644;2023-02-02T10:37:25;101886.75;;;11.44;71.91
64853;BME280;56050;55.558;-4.644;2023-02-02T10:44:59;101880.31;;;11.52;71.83
64853;BME280;56050;55.558;-4.644;2023-02-02T10:47:29;101878.81;;;11.55;71.69
64853;BME280;56050;55.558;-4.644;2023-02-02T10:50:15;101878.09;;;11.58;71.77
64853;BME280;56050;55.558;-4.644;2023-02-02T10:52:45;101871.97;;;11.61;71.37
64853;BME280;56050;55.558;-4.644;2023-02-02T11:00:40;101875.75;;;11.56;70.72
64853;BME280;56050;55.558;-4.644;2023-02-02T11:03:12;101856.44;;;11.54;70.61
64853;BME280;56050;55.558;-4.644;2023-02-02T11:05:38;101871.16;;;11.57;70.83
64853;BME280;56050;55.558;-4.644;2023-02-02T11:11:21;101865.00;;;11.60;70.49
64853;BME280;56050;55.558;-4.644;2023-02-02T11:13:49;101871.97;;;11.61;70.20
64853;BME280;56050;55.558;-4.644;2023-02-02T11:16:21;101875.84;;;11.63;70.10
64853;BME280;56050;55.558;-4.644;2023-02-02T11:18:47;101862.75;;;11.65;69.85
64853;BME280;56050;55.558;-4.644;2023-02-02T11:21:25;101867.03;;;11.66;69.97
64853;BME280;56050;55.558;-4.644;2023-02-02T11:26:21;101879.81;;;11.69;69.71
64853;BME280;56050;55.558;-4.644;2023-02-02T11:28:49;101873.28;;;11.70;69.41
64853;BME280;56050;55.558;-4.644;2023-02-02T11:31:41;101872.13;;;11.71;69.68
64853;BME280;56050;55.558;-4.644;2023-02-02T11:39:38;101867.66;;;11.83;69.34
64853;BME280;56050;55.558;-4.644;2023-02-02T11:42:07;101874.63;;;11.84;69.28
64853;BME280;56050;55.558;-4.644;2023-02-02T11:44:37;101873.84;;;11.83;69.22
64853;BME280;56050;55.558;-4.644;2023-02-02T11:47:04;101874.63;;;11.84;69.38
64853;BME280;56050;55.558;-4.644;2023-02-02T11:49:32;101875.41;;;11.84;69.22
64853;BME280;56050;55.558;-4.644;2023-02-02T11:52:04;101866.50;;;11.84;69.30
64853;BME280;56050;55.558;-4.644;2023-02-02T11:54:32;101871.91;;;11.84;69.15
64853;BME280;56050;55.558;-4.644;2023-02-02T11:57:01;101867.66;;;11.83;69.09
64853;BME280;56050;55.558;-4.644;2023-02-02T11:59:35;101866.88;;;11.82;69.10
64853;BME280;56050;55.558;-4.644;2023-02-02T12:04:46;101860.28;;;11.79;69.20
64853;BME280;56050;55.558;-4.644;2023-02-02T12:09:44;101867.63;;;11.79;69.62
64853;BME280;56050;55.558;-4.644;2023-02-02T12:15:50;101858.88;;;11.63;70.02
64853;BME280;56050;55.558;-4.644;2023-02-02T12:18:39;101855.72;;;11.57;70.25
64853;BME280;56050;55.558;-4.644;2023-02-02T12:21:18;101851.78;;;11.51;70.45
64853;BME280;56050;55.558;-4.644;2023-02-02T12:23:50;101856.75;;;11.49;70.51
64853;BME280;56050;55.558;-4.644;2023-02-02T12:26:27;101865.56;;;11.46;70.57
64853;BME280;56050;55.558;-4.644;2023-02-02T12:32:03;101855.47;;;11.40;71.18
64853;BME280;56050;55.558;-4.644;2023-02-02T12:35:42;101850.81;;;11.37;71.43
64853;BME280;56050;55.558;-4.644;2023-02-02T12:37:55;101859.25;;;11.35;71.61
64853;BME280;56050;55.558;-4.644;2023-02-02T12:40:36;101857.28;;;11.32;71.64
64853;BME280;56050;55.558;-4.644;2023-02-02T12:51:38;101847.72;;;11.38;71.96
64853;BME280;56050;55.558;-4.644;2023-02-02T12:57:09;101833.66;;;11.52;72.01
64853;BME280;56050;55.558;-4.644;2023-02-02T13:12:37;101812.97;;;11.59;71.52
64853;BME280;56050;55.558;-4.644;2023-02-02T13:15:12;101817.16;;;11.57;71.39
64853;BME280;56050;55.558;-4.644;2023-02-02T13:17:42;101806.38;;;11.57;70.76
64853;BME280;56050;55.558;-4.644;2023-02-02T13:22:43;101802.97;;;11.63;70.91
64853;BME280;56050;55.558;-4.644;2023-02-02T13:25:23;101811.47;;;11.65;70.35
64853;BME280;56050;55.558;-4.644;2023-02-02T13:27:50;101808.03;;;11.68;70.30
64853;BME280;56050;55.558;-4.644;2023-02-02T13:30:43;101803.81;;;11.67;70.36
64853;BME280;56050;55.558;-4.644;2023-02-02T13:33:25;101796.94;;;11.70;69.37
64853;BME280;56050;55.558;-4.644;2023-02-02T13:35:59;101794.22;;;11.70;68.90
64853;BME280;56050;55.558;-4.644;2023-02-02T13:38:29;101796.53;;;11.71;68.30
64853;BME280;56050;55.558;-4.644;2023-02-02T13:40:58;101798.91;;;11.73;68.22
64853;BME280;56050;55.558;-4.644;2023-02-02T14:02:32;101815.09;;;11.73;65.83
64853;BME280;56050;55.558;-4.644;2023-02-02T14:05:02;101818.97;;;11.75;65.78
64853;BME280;56050;55.558;-4.644;2023-02-02T14:07:43;101833.59;;;11.74;65.55
64853;BME280;56050;55.558;-4.644;2023-02-02T14:10:33;101816.69;;;11.77;65.83
64853;BME280;56050;55.558;-4.644;2023-02-02T14:13:16;101830.22;;;11.81;65.95
64853;BME280;56050;55.558;-4.644;2023-02-02T14:16:04;101814.81;;;11.82;65.38
64853;BME280;56050;55.558;-4.644;2023-02-02T14:37:09;101789.84;;;11.92;64.57
64853;BME280;56050;55.558;-4.644;2023-02-02T14:45:46;101779.84;;;11.92;64.80
64853;BME280;56050;55.558;-4.644;2023-02-02T14:48:25;101782.94;;;11.94;64.77
64853;BME280;56050;55.558;-4.644;2023-02-02T14:51:01;101787.19;;;11.95;64.94
64853;BME280;56050;55.558;-4.644;2023-02-02T15:00:20;101776.09;;;12.04;65.21
64853;BME280;56050;55.558;-4.644;2023-02-02T15:02:47;101774.94;;;12.05;65.05
64853;BME280;56050;55.558;-4.644;2023-02-02T15:08:27;101796.94;;;12.03;65.40
64853;BME280;56050;55.558;-4.644;2023-02-02T15:10:59;101801.56;;;12.03;65.45
64853;BME280;56050;55.558;-4.644;2023-02-02T15:13:32;101814.28;;;12.02;65.42
64853;BME280;56050;55.558;-4.644;2023-02-02T15:16:17;101819.28;;;12.00;65.55
64853;BME280;56050;55.558;-4.644;2023-02-02T15:18:48;101833.19;;;12.02;65.59
64853;BME280;56050;55.558;-4.644;2023-02-02T15:21:20;101833.56;;;12.01;65.77
64853;BME280;56050;55.558;-4.644;2023-02-02T15:23:48;101827.00;;;12.02;65.67